Time;durP1;ratioP1;P1;durP2;ratioP2;P2;SDS_P1;SDS_P2;PMS_P1;PMS_P2;Temp;Humidity;BMP_temperature;BMP_pressure;BME280_temperature;BME280_humidity;BME280_pressure;Samples;Min_cycle;Max_cycle;Signal;HPM_P1;HPM_P2
2023/04/24 00:04:55;;;;;;;18.50;14.37;;;10.90;99.90;;;;;;12854322;23;20167;-87
2023/04/24 00:09:58;;;;;;;26.97;17.50;;;11.00;99.90;;;;;;12853834;23;20238;-87
2023/04/24 00:15:01;;;;;;;20.20;15.33;;;11.00;99.90;;;;;;12851420;23;20187;-87
2023/04/24 00:20:06;;;;;;;20.07;14.60;;;11.00;99.90;;;;;;12853936;23;20300;-87
2023/04/24 00:25:09;;;;;;;16.83;14.03;;;11.10;99.90;;;;;;12851393;23;20230;-87
2023/04/24 00:30:12;;;;;;;16.07;13.27;;;11.20;99.90;;;;;;12852731;23;20236;-87
2023/04/24 00:35:14;;;;;;;19.60;14.07;;;11.20;99.90;;;;;;12852122;23;20179;-87
2023/04/24 00:40:17;;;;;;;20.23;15.40;;;11.30;99.90;;;;;;12850596;23;20236;-87
2023/04/24 00:45:20;;;;;;;15.60;11.50;;;11.30;99.90;;;;;;12852838;23;20241;-86
2023/04/24 00:50:24;;;;;;;19.47;15.27;;;11.30;99.90;;;;;;12861327;23;20186;-87
2023/04/24 00:55:27;;;;;;;15.67;13.37;;;11.40;99.90;;;;;;12858330;23;20514;-87
2023/04/24 01:00:30;;;;;;;18.53;14.27;;;11.40;99.90;;;;;;12857206;23;20199;-87
2023/04/24 01:05:33;;;;;;;18.33;14.37;;;11.40;99.90;;;;;;12854208;23;20237;-87
2023/04/24 01:10:37;;;;;;;18.03;14.73;;;11.40;99.90;;;;;;12856088;23;20660;-87
2023/04/24 01:15:40;;;;;;;18.57;13.70;;;11.40;99.90;;;;;;12854461;23;20238;-87
2023/04/24 01:20:44;;;;;;;16.37;14.37;;;11.50;99.90;;;;;;12856949;23;20218;-87
2023/04/24 01:25:48;;;;;;;21.37;15.13;;;11.50;99.90;;;;;;12855502;23;20194;-87
2023/04/24 01:30:51;;;;;;;18.13;14.10;;;11.60;99.90;;;;;;12854547;23;20187;-87
2023/04/24 01:35:57;;;;;;;21.07;14.97;;;11.60;99.90;;;;;;12853831;23;20522;-87
2023/04/24 01:41:00;;;;;;;16.30;12.80;;;11.60;99.90;;;;;;12853188;23;20208;-87
2023/04/24 01:46:03;;;;;;;15.00;11.87;;;11.50;99.90;;;;;;12853166;23;20239;-87
2023/04/24 01:51:05;;;;;;;16.40;13.07;;;11.70;99.90;;;;;;12854672;23;20245;-87
2023/04/24 01:56:09;;;;;;;17.87;14.37;;;11.80;99.90;;;;;;12853232;23;20525;-87
2023/04/24 02:01:23;;;;;;;16.00;10.87;;;11.70;99.90;;;;;;12853209;23;20563;-87
2023/04/24 02:06:25;;;;;;;10.40;8.80;;;11.80;99.90;;;;;;12874638;23;20163;-87
2023/04/24 02:11:28;;;;;;;6.77;6.13;;;12.00;99.90;;;;;;12874342;23;20190;-87
2023/04/24 02:16:32;;;;;;;16.73;12.13;;;12.30;99.90;;;;;;12852777;23;20182;-87
2023/04/24 02:21:35;;;;;;;16.20;12.90;;;12.30;99.90;;;;;;12855296;23;20187;-87
2023/04/24 02:26:37;;;;;;;17.10;12.40;;;12.20;99.90;;;;;;12855000;23;20711;-87
2023/04/24 02:31:40;;;;;;;14.73;11.83;;;12.10;99.90;;;;;;12828925;23;20187;-87
2023/04/24 02:36:42;;;;;;;18.53;12.87;;;12.00;99.90;;;;;;12853173;23;20227;-87
2023/04/24 02:41:45;;;;;;;16.70;12.73;;;12.00;99.90;;;;;;12852487;23;20265;-87
2023/04/24 02:46:47;;;;;;;15.00;12.60;;;12.00;99.90;;;;;;12855296;23;20233;-87
2023/04/24 02:51:51;;;;;;;18.10;13.23;;;12.10;99.90;;;;;;12852383;23;20179;-87
2023/04/24 02:56:54;;;;;;;19.63;13.60;;;12.10;99.90;;;;;;12851922;23;20634;-87
2023/04/24 03:01:57;;;;;;;19.40;15.00;;;12.10;99.90;;;;;;12851736;23;20266;-87
2023/04/24 03:07:00;;;;;;;14.80;11.47;;;12.00;99.90;;;;;;12854443;23;20179;-87
2023/04/24 03:12:03;;;;;;;23.17;13.20;;;12.10;99.90;;;;;;12853857;23;20627;-87
2023/04/24 03:17:06;;;;;;;15.93;12.77;;;12.00;99.90;;;;;;12854419;23;20225;-87
2023/04/24 03:22:09;;;;;;;11.33;9.40;;;11.90;99.90;;;;;;12851599;23;20261;-88
2023/04/24 03:27:12;;;;;;;15.70;12.10;;;12.00;99.90;;;;;;12852069;23;20237;-87
2023/04/24 03:32:35;;;;;;;14.47;11.53;;;12.20;99.90;;;;;;12851567;23;20180;-87
2023/04/24 03:37:38;;;;;;;15.70;12.60;;;12.30;99.90;;;;;;12850941;23;20206;-87
2023/04/24 03:43:04;;;;;;;10.40;9.20;;;12.30;99.90;;;;;;12838492;23;20677;-87
2023/04/24 03:48:07;;;;;;;15.07;10.60;;;12.30;99.90;;;;;;12850867;23;20249;-87
2023/04/24 03:53:10;;;;;;;15.07;12.77;;;12.40;99.90;;;;;;12851110;23;20209;-86
2023/04/24 03:58:15;;;;;;;17.30;13.87;;;12.40;99.90;;;;;;12851124;23;20708;-87
2023/04/24 04:03:18;;;;;;;15.07;12.47;;;12.30;99.90;;;;;;12826968;23;20198;-87
2023/04/24 04:08:21;;;;;;;9.50;8.17;;;12.10;99.90;;;;;;12851239;23;20234;-87
2023/04/24 04:13:24;;;;;;;9.00;6.97;;;12.20;99.90;;;;;;12826913;23;20183;-86
2023/04/24 04:18:26;;;;;;;11.43;9.60;;;12.40;99.90;;;;;;12853071;23;20204;-86
2023/04/24 04:23:29;;;;;;;14.57;11.77;;;12.50;99.90;;;;;;12855831;23;20237;-87
2023/04/24 04:28:52;;;;;;;14.33;11.27;;;12.10;99.90;;;;;;12856780;23;20181;-86
2023/04/24 04:33:55;;;;;;;13.33;9.77;;;11.90;99.90;;;;;;12857208;23;20516;-87
2023/04/24 04:38:59;;;;;;;12.33;10.50;;;11.80;99.90;;;;;;12854837;23;20229;-87
2023/04/24 04:44:30;;;;;;;10.63;9.27;;;11.90;99.90;;;;;;12861752;23;20233;-85
2023/04/24 04:49:35;;;;;;;16.40;11.33;;;12.00;99.90;;;;;;12854742;23;20241;-87
2023/04/24 04:54:40;;;;;;;13.67;10.63;;;12.20;99.90;;;;;;12854183;23;20179;-88
2023/04/24 04:59:43;;;;;;;11.87;9.33;;;12.30;99.90;;;;;;12855140;23;20260;-87
2023/04/24 05:04:53;;;;;;;13.27;10.37;;;12.50;99.90;;;;;;12854340;23;20227;-87
2023/04/24 05:09:57;;;;;;;13.23;11.00;;;12.60;99.90;;;;;;12856866;23;20167;-87
2023/04/24 05:15:00;;;;;;;15.57;11.27;;;12.60;99.90;;;;;;12854903;23;20534;-87
2023/04/24 05:20:05;;;;;;;11.57;9.30;;;12.80;99.90;;;;;;12853971;23;20679;-87
2023/04/24 05:25:08;;;;;;;11.73;8.93;;;12.80;99.90;;;;;;12830333;23;20175;-87
2023/04/24 05:30:16;;;;;;;10.50;8.23;;;12.90;99.90;;;;;;12853653;23;20582;-87
2023/04/24 05:35:19;;;;;;;11.37;10.03;;;13.10;99.90;;;;;;12853909;23;20183;-87
2023/04/24 05:40:21;;;;;;;13.40;9.80;;;13.30;99.90;;;;;;12853226;23;20511;-87
2023/04/24 05:45:24;;;;;;;13.43;9.40;;;13.40;99.90;;;;;;12853749;23;20179;-87
2023/04/24 05:50:27;;;;;;;11.13;9.20;;;13.70;99.90;;;;;;12853289;23;20831;-87
2023/04/24 05:55:31;;;;;;;12.53;10.70;;;13.90;99.90;;;;;;12853321;23;20183;-87
2023/04/24 06:00:35;;;;;;;13.63;7.53;;;14.10;99.90;;;;;;12853702;23;20597;-87
2023/04/24 06:05:42;;;;;;;9.07;7.77;;;14.40;99.90;;;;;;12828680;23;20174;-87
2023/04/24 06:10:45;;;;;;;16.80;13.53;;;14.50;99.90;;;;;;12852809;23;20179;-87
2023/04/24 06:15:50;;;;;;;14.40;11.40;;;14.60;99.90;;;;;;12828579;23;20242;-87
2023/04/24 06:21:09;;;;;;;15.53;13.13;;;14.70;99.90;;;;;;12873210;23;20193;-87
2023/04/24 06:26:12;;;;;;;12.20;9.43;;;14.90;99.90;;;;;;12852717;23;20175;-87
2023/04/24 06:31:14;;;;;;;10.60;8.30;;;15.20;99.90;;;;;;12851729;23;20184;-87
2023/04/24 06:36:17;;;;;;;11.57;9.53;;;15.40;99.90;;;;;;12853354;23;20186;-87
2023/04/24 06:41:20;;;;;;;8.57;7.67;;;15.50;99.90;;;;;;12852414;23;20716;-87
2023/04/24 06:46:25;;;;;;;11.60;10.00;;;15.60;99.90;;;;;;12851052;23;20186;-87
2023/04/24 06:51:28;;;;;;;13.17;10.10;;;15.60;99.90;;;;;;12852781;23;20510;-87
2023/04/24 06:56:31;;;;;;;14.27;11.17;;;15.60;99.90;;;;;;12869158;23;20218;-88
2023/04/24 07:01:34;;;;;;;9.57;8.53;;;15.70;99.90;;;;;;12853528;23;20857;-87
2023/04/24 07:06:37;;;;;;;16.77;12.40;;;15.80;99.90;;;;;;12853348;23;20170;-86
2023/04/24 07:11:40;;;;;;;13.37;12.00;;;15.80;99.90;;;;;;12868546;23;20550;-87
2023/04/24 07:16:43;;;;;;;16.13;11.00;;;15.70;99.90;;;;;;12850354;23;20779;-87
2023/04/24 07:21:46;;;;;;;22.97;12.30;;;15.70;99.90;;;;;;12850012;23;20228;-88
2023/04/24 07:26:51;;;;;;;17.07;11.90;;;15.80;99.90;;;;;;12853595;23;20175;-87
2023/04/24 07:31:54;;;;;;;14.03;10.37;;;16.00;99.90;;;;;;12864957;23;20178;-87
2023/04/24 07:36:56;;;;;;;19.93;13.83;;;16.30;99.90;;;;;;12850012;23;20173;-87
2023/04/24 07:41:59;;;;;;;18.10;14.20;;;16.60;99.90;;;;;;12850151;23;20300;-87
2023/04/24 07:47:02;;;;;;;17.03;12.07;;;16.90;99.90;;;;;;12851108;23;20173;-87
2023/04/24 07:52:04;;;;;;;13.83;9.83;;;17.30;99.90;;;;;;12850761;23;20702;-87
2023/04/24 07:57:08;;;;;;;18.87;12.83;;;17.40;99.90;;;;;;12850340;23;20226;-87
2023/04/24 08:02:10;;;;;;;9.90;8.63;;;17.30;99.90;;;;;;12847177;23;20205;-87
2023/04/24 08:07:13;;;;;;;5.87;5.23;;;17.40;99.90;;;;;;12849936;23;20179;-87
2023/04/24 08:12:15;;;;;;;11.90;8.43;;;17.70;99.90;;;;;;12850289;23;20183;-87
2023/04/24 08:17:18;;;;;;;4.87;4.37;;;17.70;99.90;;;;;;12851453;23;20228;-87
2023/04/24 08:22:20;;;;;;;10.57;8.93;;;17.80;99.90;;;;;;12850904;23;20203;-87
2023/04/24 08:27:23;;;;;;;9.97;8.93;;;17.90;99.90;;;;;;12865523;23;20170;-87
2023/04/24 08:32:29;;;;;;;7.90;6.33;;;17.90;99.90;;;;;;12849052;23;20189;-87
2023/04/24 08:37:32;;;;;;;9.60;8.57;;;18.00;99.90;;;;;;12867889;23;20198;-87
2023/04/24 08:42:37;;;;;;;15.33;9.03;;;18.00;99.90;;;;;;12851094;23;20261;-87
2023/04/24 08:47:41;;;;;;;13.17;8.40;;;18.00;99.90;;;;;;12849597;23;20179;-87
2023/04/24 08:52:43;;;;;;;9.90;8.37;;;17.90;99.90;;;;;;12848816;23;20518;-87
2023/04/24 08:57:51;;;;;;;8.57;7.77;;;18.00;99.90;;;;;;12849474;23;20179;-87
2023/04/24 09:02:55;;;;;;;12.60;8.30;;;17.90;99.90;;;;;;12849808;23;20693;-87
2023/04/24 09:08:01;;;;;;;11.13;8.83;;;17.70;99.90;;;;;;12852355;23;20174;-87
2023/04/24 09:13:11;;;;;;;9.13;6.50;;;17.70;99.90;;;;;;12872062;23;20599;-87
2023/04/24 09:18:13;;;;;;;9.27;6.83;;;18.00;99.90;;;;;;12852483;23;20225;-87
2023/04/24 09:23:18;;;;;;;13.03;9.60;;;18.20;99.90;;;;;;12850507;23;20213;-87
2023/04/24 09:28:32;;;;;;;12.77;8.47;;;18.30;99.90;;;;;;12849967;23;20488;-87
2023/04/24 09:33:36;;;;;;;8.07;6.83;;;18.40;99.50;;;;;;12857080;23;20554;-86
2023/04/24 09:38:38;;;;;;;9.03;7.57;;;18.60;99.90;;;;;;12863567;23;20205;-86
2023/04/24 09:43:41;;;;;;;8.97;7.70;;;18.60;99.50;;;;;;12850316;23;20252;-86
2023/04/24 09:48:44;;;;;;;11.13;7.43;;;18.70;99.50;;;;;;12849380;23;20238;-86
2023/04/24 09:53:47;;;;;;;10.30;8.10;;;18.70;99.20;;;;;;12851587;23;20241;-86
2023/04/24 09:59:04;;;;;;;9.43;8.00;;;18.70;99.00;;;;;;12849221;23;20253;-86
2023/04/24 10:04:22;;;;;;;12.10;8.23;;;18.90;98.70;;;;;;12851217;23;20198;-86
2023/04/24 10:09:26;;;;;;;9.83;8.47;;;19.00;98.00;;;;;;12871454;23;20159;-86
2023/04/24 10:14:30;;;;;;;15.33;11.13;;;19.30;98.30;;;;;;12848946;23;20206;-86
2023/04/24 10:19:33;;;;;;;14.60;11.03;;;19.30;97.50;;;;;;12849209;23;20219;-86
2023/04/24 10:24:38;;;;;;;10.23;9.23;;;19.50;96.90;;;;;;12852185;23;20511;-86
2023/04/24 10:29:43;;;;;;;11.03;7.80;;;19.50;96.20;;;;;;12869534;23;20214;-86
2023/04/24 10:34:46;;;;;;;11.93;7.47;;;19.40;96.50;;;;;;12851168;23;20682;-86
2023/04/24 10:39:50;;;;;;;10.10;9.07;;;19.70;96.30;;;;;;12850267;23;20257;-86
2023/04/24 10:44:54;;;;;;;9.67;7.00;;;19.60;95.00;;;;;;12852193;23;20503;-85
2023/04/24 10:49:59;;;;;;;5.67;5.00;;;19.40;95.20;;;;;;12849846;23;20167;-86
2023/04/24 10:55:02;;;;;;;9.97;8.90;;;19.40;96.00;;;;;;12850136;23;20483;-86
2023/04/24 11:00:20;;;;;;;8.40;7.60;;;19.50;95.80;;;;;;12851169;23;20190;-86
2023/04/24 11:05:50;;;;;;;8.10;6.90;;;19.80;95.00;;;;;;12851501;23;20223;-86
2023/04/24 11:10:59;;;;;;;5.90;5.30;;;20.10;93.90;;;;;;12849355;23;20186;-86
2023/04/24 11:16:15;;;;;;;7.87;7.17;;;;;;;;;;12866494;23;20171;-86
2023/04/24 11:21:18;;;;;;;7.77;7.00;;;20.30;90.50;;;;;;12867800;23;20177;-86
2023/04/24 11:26:32;;;;;;;9.53;8.63;;;;;;;;;;12852156;23;20163;-86
2023/04/24 11:31:39;;;;;;;11.07;7.37;;;20.20;87.50;;;;;;12847229;23;20216;-85
2023/04/24 11:36:48;;;;;;;8.90;8.10;;;20.20;90.30;;;;;;12849305;23;20638;-86
2023/04/24 11:41:51;;;;;;;6.10;5.50;;;20.20;90.20;;;;;;12868868;23;20193;-86
2023/04/24 11:46:56;;;;;;;4.77;4.37;;;20.10;91.50;;;;;;12850258;23;20237;-86
2023/04/24 11:52:02;;;;;;;6.33;5.57;;;19.90;93.10;;;;;;12849056;23;20186;-86
2023/04/24 11:57:06;;;;;;;5.30;4.87;;;19.60;92.90;;;;;;12848803;23;20189;-86
2023/04/24 12:02:08;;;;;;;4.43;3.67;;;19.40;92.30;;;;;;12850208;23;20244;-86
2023/04/24 12:07:11;;;;;;;4.80;4.30;;;19.30;93.90;;;;;;12848647;23;20230;-86
2023/04/24 12:12:15;;;;;;;3.83;3.40;;;19.20;94.70;;;;;;12850241;23;20498;-85
2023/04/24 12:17:33;;;;;;;4.40;4.00;;;18.90;92.30;;;;;;12849919;23;20201;-85
2023/04/24 12:22:54;;;;;;;5.03;3.83;;;18.70;94.80;;;;;;12866881;23;20190;-86
2023/04/24 12:28:03;;;;;;;4.50;4.10;;;18.50;94.80;;;;;;12848833;23;20241;-86
2023/04/24 12:33:05;;;;;;;7.53;4.47;;;18.40;96.20;;;;;;12846167;23;20194;-86
2023/04/24 12:38:10;;;;;;;4.67;4.27;;;18.20;97.60;;;;;;12850205;23;20530;-86
2023/04/24 12:43:18;;;;;;;6.13;5.53;;;18.00;98.50;;;;;;12853214;23;20233;-83
2023/04/24 12:48:22;;;;;;;6.73;5.10;;;17.90;98.60;;;;;;12854727;23;20495;-94
2023/04/24 12:53:26;;;;;;;6.17;5.57;;;17.80;98.20;;;;;;12874816;23;20194;-93
2023/04/24 12:58:29;;;;;;;8.27;6.33;;;17.70;98.90;;;;;;12855293;23;20183;-94
2023/04/24 13:03:31;;;;;;;7.63;5.93;;;17.80;99.60;;;;;;12855261;23;20197;-93
2023/04/24 13:08:34;;;;;;;6.27;5.40;;;18.10;98.40;;;;;;12857092;23;20533;-94
2023/04/24 13:13:36;;;;;;;5.50;5.10;;;18.40;98.30;;;;;;12854723;23;20555;-94
2023/04/24 13:18:39;;;;;;;8.73;5.80;;;18.60;97.00;;;;;;12829862;23;20183;-94
2023/04/24 13:23:42;;;;;;;5.03;4.57;;;18.60;97.10;;;;;;12856483;23;20246;-94
2023/04/24 13:28:45;;;;;;;6.47;4.37;;;18.50;96.30;;;;;;12855960;23;20579;-94
2023/04/24 13:33:48;;;;;;;5.83;4.17;;;18.60;96.20;;;;;;12827010;23;20211;-84
2023/04/24 13:38:50;;;;;;;5.80;4.67;;;18.60;96.10;;;;;;12855253;23;20213;-84
2023/04/24 13:43:53;;;;;;;4.33;3.93;;;18.60;95.90;;;;;;12855935;23;20183;-85
2023/04/24 13:48:56;;;;;;;4.83;3.60;;;18.70;94.60;;;;;;12855491;23;20171;-84
2023/04/24 13:53:59;;;;;;;2.83;2.63;;;18.70;93.80;;;;;;12854662;23;20562;-85
2023/04/24 13:59:02;;;;;;;4.83;3.23;;;18.70;92.30;;;;;;12854827;23;20171;-85
2023/04/24 14:04:04;;;;;;;5.70;2.70;;;18.60;96.20;;;;;;12854088;23;20229;-85
2023/04/24 14:09:07;;;;;;;5.57;2.30;;;18.50;94.30;;;;;;12854431;23;20175;-85
2023/04/24 14:14:11;;;;;;;2.97;2.17;;;18.40;93.60;;;;;;12855451;23;20246;-85
2023/04/24 14:19:13;;;;;;;4.53;3.10;;;18.20;93.30;;;;;;12851144;23;20243;-85
2023/04/24 14:24:16;;;;;;;3.77;2.83;;;18.00;93.80;;;;;;12854787;23;20198;-85
2023/04/24 14:29:19;;;;;;;2.83;2.03;;;18.20;99.90;;;;;;12855526;23;20198;-86
2023/04/24 14:34:22;;;;;;;3.60;2.80;;;18.50;98.10;;;;;;12854744;23;20175;-86
2023/04/24 14:39:24;;;;;;;3.92;2.50;;;18.80;99.90;;;;;;12854243;23;20195;-86
2023/04/24 14:44:27;;;;;;;2.58;2.30;;;18.90;99.20;;;;;;12852506;23;20199;-85
2023/04/24 14:49:29;;;;;;;3.97;2.50;;;19.00;99.40;;;;;;12852827;23;20219;-85
2023/04/24 14:54:32;;;;;;;4.30;3.10;;;18.90;97.70;;;;;;12854496;23;20191;-85
2023/04/24 14:59:34;;;;;;;3.97;2.30;;;18.60;99.50;;;;;;12855358;23;20218;-85
2023/04/24 15:04:37;;;;;;;4.00;2.77;;;18.40;99.60;;;;;;12854070;23;20207;-85
2023/04/24 15:09:40;;;;;;;3.58;2.80;;;18.40;99.90;;;;;;12853135;23;20187;-85
2023/04/24 15:14:42;;;;;;;2.87;2.57;;;18.40;99.90;;;;;;12853926;23;20182;-85
2023/04/24 15:19:45;;;;;;;6.07;2.90;;;18.40;99.20;;;;;;12853457;23;20238;-85
2023/04/24 15:24:47;;;;;;;3.30;3.00;;;18.40;99.50;;;;;;12849968;23;20234;-85
2023/04/24 15:29:50;;;;;;;2.75;2.53;;;18.40;99.90;;;;;;12846213;23;20202;-85
2023/04/24 15:34:52;;;;;;;5.65;2.47;;;18.40;97.80;;;;;;12851731;23;20229;-85
2023/04/24 15:40:13;;;;;;;3.30;2.33;;;18.50;97.30;;;;;;12850131;23;20281;-86
2023/04/24 15:45:15;;;;;;;3.78;2.80;;;18.50;96.50;;;;;;12852273;23;20226;-85
2023/04/24 15:50:20;;;;;;;4.00;2.40;;;18.50;97.00;;;;;;12850700;23;20175;-85
2023/04/24 15:55:22;;;;;;;3.53;2.92;;;18.70;96.70;;;;;;12851003;23;20171;-86
2023/04/24 16:00:27;;;;;;;2.80;2.45;;;18.50;97.40;;;;;;12869298;23;20630;-85
2023/04/24 16:05:30;;;;;;;4.32;2.78;;;18.40;98.60;;;;;;12849674;23;20199;-86
2023/04/24 16:10:32;;;;;;;3.45;2.60;;;18.40;99.20;;;;;;12850308;23;20179;-85
2023/04/24 16:15:35;;;;;;;4.85;3.08;;;18.40;99.40;;;;;;12852210;23;20182;-85
2023/04/24 16:20:38;;;;;;;7.80;4.03;;;18.10;98.30;;;;;;12873364;23;20171;-86
2023/04/24 16:25:40;;;;;;;4.93;3.00;;;18.00;98.30;;;;;;12852841;23;20203;-85
2023/04/24 16:30:43;;;;;;;2.63;2.20;;;17.40;99.90;;;;;;12855905;23;20550;-86
2023/04/24 16:35:46;;;;;;;3.47;3.00;;;17.10;99.90;;;;;;12853623;23;20187;-86
2023/04/24 16:40:48;;;;;;;10.00;6.20;;;17.10;99.90;;;;;;12855914;23;20610;-86
2023/04/24 16:45:51;;;;;;;9.17;5.17;;;16.70;99.90;;;;;;12855563;23;20202;-94
2023/04/24 16:50:53;;;;;;;6.55;5.75;;;16.60;99.90;;;;;;12858868;23;20198;-94
2023/04/24 16:55:56;;;;;;;11.47;6.57;;;16.40;99.90;;;;;;12855315;23;20182;-94
2023/04/24 17:00:59;;;;;;;8.83;6.10;;;15.80;99.90;;;;;;12856363;23;20221;-94
2023/04/24 17:06:02;;;;;;;9.17;6.10;;;15.50;99.90;;;;;;12873271;23;20191;-94
2023/04/24 17:11:04;;;;;;;25.90;12.67;;;15.30;99.90;;;;;;12857254;23;20638;-94
2023/04/24 17:16:07;;;;;;;15.20;9.80;;;15.20;99.90;;;;;;12862490;23;20190;-93
2023/04/24 17:21:09;;;;;;;11.20;7.83;;;14.90;99.90;;;;;;12858011;23;20183;-94
2023/04/24 17:26:12;;;;;;;15.83;8.30;;;14.80;99.90;;;;;;12860186;23;20670;-95
2023/04/24 17:31:15;;;;;;;7.73;5.10;;;14.70;99.90;;;;;;12857833;23;20233;-94
2023/04/24 17:36:17;;;;;;;7.37;5.57;;;14.80;99.90;;;;;;12860298;23;20229;-94
2023/04/24 17:41:20;;;;;;;8.70;6.00;;;15.30;99.90;;;;;;12855219;23;20226;-86
2023/04/24 17:46:23;;;;;;;7.38;5.05;;;15.90;99.90;;;;;;12873109;23;20245;-87
2023/04/24 17:51:26;;;;;;;11.53;5.07;;;16.30;99.90;;;;;;12856731;23;20230;-93
2023/04/24 17:56:29;;;;;;;6.77;4.57;;;16.40;99.90;;;;;;12864873;23;20167;-93
2023/04/24 18:01:31;;;;;;;7.10;4.13;;;16.50;99.90;;;;;;12849329;23;20183;-93
2023/04/24 18:06:34;;;;;;;8.97;5.30;;;16.70;99.90;;;;;;12853314;23;20234;-93
2023/04/24 18:11:37;;;;;;;7.70;4.03;;;16.70;99.90;;;;;;12851714;23;20237;-93
2023/04/24 18:16:39;;;;;;;7.90;4.43;;;16.70;99.10;;;;;;12850709;23;20183;-94
2023/04/24 18:21:42;;;;;;;7.70;4.23;;;16.50;99.20;;;;;;12851429;23;20510;-94
2023/04/24 18:26:44;;;;;;;7.87;3.57;;;16.80;98.60;;;;;;12851884;23;20199;-83
2023/04/24 18:31:48;;;;;;;7.20;5.07;;;17.00;97.00;;;;;;12852135;23;20171;-84
2023/04/24 18:36:51;;;;;;;5.90;4.03;;;14.10;99.90;;;;;;12853280;23;20553;-84
2023/04/24 18:41:54;;;;;;;8.87;4.40;;;13.40;99.90;;;;;;12871361;23;20174;-83
2023/04/24 18:46:56;;;;;;;5.83;4.23;;;12.90;99.90;;;;;;12854012;23;20556;-83
2023/04/24 18:51:59;;;;;;;8.67;5.10;;;12.50;99.90;;;;;;12851547;23;20202;-83
2023/04/24 18:57:03;;;;;;;9.63;6.70;;;12.40;99.90;;;;;;12854016;23;20171;-83
2023/04/24 19:02:06;;;;;;;9.70;7.50;;;12.10;99.90;;;;;;12850738;23;20286;-84
2023/04/24 19:07:08;;;;;;;11.93;6.27;;;12.00;99.90;;;;;;12851649;23;20203;-83
2023/04/24 19:12:11;;;;;;;18.23;11.90;;;11.90;99.90;;;;;;12852459;23;20602;-84
2023/04/24 19:17:17;;;;;;;17.10;9.50;;;11.80;99.90;;;;;;12853211;23;20506;-84
2023/04/24 19:22:19;;;;;;;8.93;6.20;;;11.60;99.90;;;;;;12852080;23;20183;-83
2023/04/24 19:27:22;;;;;;;10.70;5.17;;;11.60;99.90;;;;;;12850868;23;20717;-84
2023/04/24 19:32:24;;;;;;;10.47;5.53;;;11.70;99.90;;;;;;12852754;23;20202;-85
2023/04/24 19:37:27;;;;;;;11.37;7.73;;;11.80;99.90;;;;;;12852924;23;20253;-85
2023/04/24 19:42:30;;;;;;;16.57;10.17;;;11.60;99.90;;;;;;12854570;23;20214;-84
2023/04/24 19:47:47;;;;;;;20.77;12.30;;;11.50;99.90;;;;;;12850841;23;20187;-84
2023/04/24 19:52:50;;;;;;;19.53;11.80;;;11.30;99.90;;;;;;12868032;23;20515;-84
2023/04/24 19:57:53;;;;;;;18.57;10.60;;;11.30;99.90;;;;;;12849916;23;20233;-84
2023/04/24 20:02:55;;;;;;;13.40;8.67;;;11.20;99.90;;;;;;12852370;23;20279;-84
2023/04/24 20:07:58;;;;;;;12.87;8.93;;;11.10;99.90;;;;;;12852261;23;20175;-84
2023/04/24 20:13:00;;;;;;;12.30;8.67;;;11.10;99.90;;;;;;12870024;23;20221;-85
2023/04/24 20:18:03;;;;;;;14.93;9.50;;;11.00;99.90;;;;;;12852613;23;20178;-84
2023/04/24 20:23:05;;;;;;;16.90;10.07;;;11.00;99.90;;;;;;12851704;23;20207;-84
2023/04/24 20:28:08;;;;;;;20.67;13.27;;;10.90;99.90;;;;;;12852102;23;20271;-83
2023/04/24 20:33:10;;;;;;;31.60;21.30;;;10.90;99.90;;;;;;12852142;23;20198;-83
2023/04/24 20:38:14;;;;;;;22.93;11.67;;;10.90;99.90;;;;;;12852130;23;20225;-83
2023/04/24 20:43:16;;;;;;;17.30;10.40;;;10.90;99.90;;;;;;12851867;23;20214;-83
2023/04/24 20:48:19;;;;;;;15.63;9.97;;;11.40;99.90;;;;;;12851571;23;20179;-84
2023/04/24 20:53:21;;;;;;;14.97;9.33;;;11.70;99.90;;;;;;12850979;23;20853;-83
2023/04/24 20:58:24;;;;;;;13.43;8.23;;;11.90;99.90;;;;;;12852929;23;20192;-83
2023/04/24 21:03:26;;;;;;;13.57;6.47;;;12.40;99.90;;;;;;12852235;23;20202;-84
2023/04/24 21:08:29;;;;;;;13.37;6.77;;;12.40;99.90;;;;;;12856291;23;20617;-84
2023/04/24 21:13:32;;;;;;;10.50;6.40;;;13.00;99.90;;;;;;12856045;23;20210;-84
2023/04/24 21:18:39;;;;;;;11.63;7.07;;;13.20;99.90;;;;;;12855736;23;20278;-84
2023/04/24 21:23:42;;;;;;;12.10;4.97;;;13.40;99.90;;;;;;12873369;23;20650;-83
2023/04/24 21:28:45;;;;;;;11.80;6.10;;;13.80;99.90;;;;;;12855922;23;20163;-83
2023/04/24 21:33:47;;;;;;;7.27;5.30;;;14.10;99.90;;;;;;12855320;23;20237;-84
2023/04/24 21:38:50;;;;;;;9.87;4.10;;;14.90;99.90;;;;;;12855076;23;20202;-83
2023/04/24 21:43:53;;;;;;;9.37;5.43;;;15.70;99.90;;;;;;12853132;23;20542;-83
2023/04/24 21:48:55;;;;;;;8.53;4.40;;;16.20;99.90;;;;;;12854895;23;20241;-83
2023/04/24 21:53:58;;;;;;;8.57;4.40;;;16.50;99.90;;;;;;12855158;23;20495;-83
2023/04/24 21:59:01;;;;;;;7.20;5.13;;;16.90;99.90;;;;;;12855393;23;20167;-83
2023/04/24 22:04:04;;;;;;;6.10;3.97;;;;;;;;;;12855096;23;20191;-83
2023/04/24 22:09:07;;;;;;;9.00;1.92;;;17.70;99.90;;;;;;12855284;23;20218;-84
2023/04/24 22:14:09;;;;;;;4.78;3.40;;;17.80;99.90;;;;;;12855212;23;20298;-83
2023/04/24 22:19:13;;;;;;;6.93;2.37;;;17.70;99.90;;;;;;12857683;23;20230;-84
2023/04/24 22:24:17;;;;;;;7.75;4.60;;;17.90;99.90;;;;;;12854771;23;20191;-84
2023/04/24 22:29:20;;;;;;;5.60;3.40;;;18.30;99.90;;;;;;12855436;23;20590;-83
2023/04/24 22:34:23;;;;;;;4.63;3.23;;;18.10;99.90;;;;;;12855003;23;20555;-83
2023/04/24 22:39:25;;;;;;;8.30;3.70;;;18.00;98.60;;;;;;12854948;23;20805;-83
2023/04/24 22:44:27;;;;;;;4.50;3.45;;;17.90;99.90;;;;;;12854548;23;20529;-83
2023/04/24 22:49:30;;;;;;;4.30;3.15;;;17.40;96.50;;;;;;12853818;23;20688;-84
2023/04/24 22:54:33;;;;;;;3.67;2.70;;;17.50;99.90;;;;;;12854766;23;20171;-83
2023/04/24 22:59:37;;;;;;;7.80;3.60;;;17.40;99.90;;;;;;12854744;23;20186;-83
2023/04/24 23:04:40;;;;;;;7.40;3.00;;;17.30;97.50;;;;;;12857816;23;20179;-83
2023/04/24 23:09:42;;;;;;;4.20;2.95;;;17.30;98.30;;;;;;12854534;23;20171;-83
2023/04/24 23:14:45;;;;;;;5.90;2.90;;;17.40;99.90;;;;;;12851720;23;20179;-83
2023/04/24 23:19:47;;;;;;;6.63;3.53;;;17.40;99.90;;;;;;12853159;23;20175;-83
2023/04/24 23:24:50;;;;;;;4.40;2.70;;;17.20;99.90;;;;;;12869875;23;20237;-83
2023/04/24 23:29:52;;;;;;;5.70;3.17;;;17.30;99.90;;;;;;12853911;23;20673;-83
2023/04/24 23:34:55;;;;;;;4.50;3.00;;;17.40;99.90;;;;;;12850961;23;20183;-84
2023/04/24 23:39:57;;;;;;;3.88;1.67;;;16.70;99.90;;;;;;12853340;23;20203;-83
2023/04/24 23:45:00;;;;;;;3.55;2.95;;;17.10;99.90;;;;;;12854087;23;20187;-84
2023/04/24 23:50:03;;;;;;;2.33;2.13;;;17.10;99.90;;;;;;12854115;23;20807;-84
2023/04/24 23:55:08;;;;;;;3.67;2.85;;;17.10;99.90;;;;;;12854131;23;20550;-83
